Time;durP1;ratioP1;P1;durP2;ratioP2;P2;SDS_P1;SDS_P2;PMS_P1;PMS_P2;Temp;Humidity;BMP_temperature;BMP_pressure;BME280_temperature;BME280_humidity;BME280_pressure;Samples;Min_cycle;Max_cycle;Signal;HPM_P1;HPM_P2
2022/08/30 00:01:01;;;;;;;4.93;2.87;;;18.30;98.00;;;;;;5035222;28;20493;-68
2022/08/30 00:03:30;;;;;;;5.87;3.20;;;18.20;98.00;;;;;;5035672;28;20497;-68
2022/08/30 00:05:58;;;;;;;5.33;3.20;;;18.20;98.00;;;;;;5035131;28;20528;-68
2022/08/30 00:08:26;;;;;;;4.47;2.67;;;18.30;98.00;;;;;;5035336;28;20459;-67
2022/08/30 00:10:53;;;;;;;6.77;3.27;;;18.20;98.00;;;;;;5017793;28;20454;-68
2022/08/30 00:13:22;;;;;;;6.10;3.17;;;18.10;98.00;;;;;;5035104;28;20470;-68
2022/08/30 00:15:51;;;;;;;4.63;3.10;;;18.20;98.00;;;;;;5035015;28;20454;-68
2022/08/30 00:18:20;;;;;;;5.03;2.50;;;18.20;98.00;;;;;;5035174;28;20457;-68
2022/08/30 00:20:48;;;;;;;7.50;3.30;;;18.10;98.00;;;;;;5034958;28;20489;-68
2022/08/30 00:23:16;;;;;;;3.70;2.77;;;18.00;98.00;;;;;;5035292;28;20480;-68
2022/08/30 00:25:44;;;;;;;4.00;2.90;;;18.00;98.00;;;;;;5034938;28;20458;-68
2022/08/30 00:28:11;;;;;;;5.90;3.20;;;17.80;98.00;;;;;;5035126;28;20459;-68
2022/08/30 00:30:39;;;;;;;5.03;2.80;;;17.80;98.00;;;;;;5035167;28;20820;-68
2022/08/30 00:33:08;;;;;;;5.70;2.80;;;17.90;98.00;;;;;;5034556;28;20459;-68
2022/08/30 00:35:37;;;;;;;5.03;2.83;;;17.90;98.00;;;;;;5034914;28;20459;-67
2022/08/30 00:38:04;;;;;;;5.00;2.60;;;17.90;98.00;;;;;;5034362;28;20487;-68
2022/08/30 00:40:32;;;;;;;3.67;2.50;;;18.00;98.00;;;;;;5034379;28;20478;-68
2022/08/30 00:43:00;;;;;;;5.80;3.03;;;18.00;98.00;;;;;;5034372;28;20465;-68
2022/08/30 00:45:31;;;;;;;5.50;2.63;;;17.90;98.00;;;;;;5034493;28;20455;-67
2022/08/30 00:47:58;;;;;;;4.23;2.77;;;17.90;98.00;;;;;;5034017;28;20465;-68
2022/08/30 00:50:33;;;;;;;4.40;2.90;;;17.90;98.00;;;;;;5034491;28;20455;-68
2022/08/30 00:53:04;;;;;;;3.60;2.50;;;17.90;98.00;;;;;;4999824;28;20458;-68
2022/08/30 00:55:32;;;;;;;4.10;2.77;;;18.00;98.00;;;;;;5034415;28;20980;-67
2022/08/30 00:58:03;;;;;;;3.07;2.30;;;18.10;98.00;;;;;;5034335;28;20462;-68
2022/08/30 01:00:31;;;;;;;4.13;3.00;;;18.20;98.00;;;;;;5034143;28;20483;-68
2022/08/30 01:02:58;;;;;;;5.70;2.90;;;18.00;98.00;;;;;;5034111;28;20462;-68
2022/08/30 01:05:27;;;;;;;4.47;2.93;;;17.90;98.00;;;;;;5034178;28;21111;-67
2022/08/30 01:07:54;;;;;;;4.03;2.60;;;17.90;98.00;;;;;;5034067;28;20461;-68
2022/08/30 01:10:21;;;;;;;8.90;3.07;;;17.90;98.00;;;;;;5034315;28;20458;-68
2022/08/30 01:12:49;;;;;;;2.50;2.10;;;17.70;98.00;;;;;;5034115;28;20469;-67
2022/08/30 01:15:16;;;;;;;4.47;2.60;;;17.50;98.00;;;;;;5034196;28;20462;-67
2022/08/30 01:17:45;;;;;;;5.23;3.37;;;17.60;98.00;;;;;;5034008;28;20462;-68
2022/08/30 01:20:17;;;;;;;6.70;3.00;;;17.50;98.00;;;;;;5033956;28;20517;-67
2022/08/30 01:22:55;;;;;;;7.03;3.00;;;17.40;98.00;;;;;;5034199;28;20546;-68
2022/08/30 01:25:28;;;;;;;3.50;2.53;;;17.40;98.00;;;;;;5034250;28;20953;-68
2022/08/30 01:28:00;;;;;;;5.03;2.03;;;17.40;98.00;;;;;;5033691;28;20462;-68
2022/08/30 01:30:27;;;;;;;6.07;3.03;;;17.30;98.00;;;;;;5033848;28;20451;-68
2022/08/30 01:32:58;;;;;;;5.40;3.27;;;17.30;98.00;;;;;;5033362;28;20458;-68
2022/08/30 01:35:28;;;;;;;6.40;3.03;;;17.20;98.00;;;;;;5033833;28;20459;-68
2022/08/30 01:37:57;;;;;;;5.30;2.90;;;17.20;98.00;;;;;;5033279;28;20463;-67
2022/08/30 01:40:24;;;;;;;6.50;3.50;;;17.10;98.00;;;;;;5033531;28;20552;-67
2022/08/30 01:42:51;;;;;;;6.90;3.07;;;17.10;98.00;;;;;;5015846;28;20459;-68
2022/08/30 01:45:18;;;;;;;3.87;2.70;;;17.10;98.00;;;;;;5033434;28;20451;-68
2022/08/30 01:47:46;;;;;;;4.33;2.53;;;17.20;98.00;;;;;;5015772;28;20463;-68
2022/08/30 01:50:13;;;;;;;2.87;2.17;;;17.10;98.00;;;;;;5033420;28;20466;-68
2022/08/30 01:52:40;;;;;;;4.70;2.73;;;17.00;98.00;;;;;;5033182;28;20802;-68
2022/08/30 01:55:10;;;;;;;4.20;2.70;;;17.10;98.00;;;;;;5015797;28;20459;-68
2022/08/30 01:57:37;;;;;;;6.80;3.13;;;17.20;98.00;;;;;;5032976;28;20455;-67
2022/08/30 02:00:09;;;;;;;4.77;2.70;;;17.20;98.00;;;;;;5033187;28;20486;-68
2022/08/30 02:02:36;;;;;;;5.53;2.60;;;17.10;98.00;;;;;;5015674;28;20956;-68
2022/08/30 02:05:05;;;;;;;3.70;2.67;;;17.10;98.00;;;;;;5033285;28;20466;-68
2022/08/30 02:07:32;;;;;;;5.70;3.30;;;17.10;98.00;;;;;;5032974;28;20497;-68
2022/08/30 02:09:59;;;;;;;5.47;2.80;;;16.90;98.00;;;;;;5032977;28;20455;-68
2022/08/30 02:12:29;;;;;;;6.60;3.33;;;16.90;98.00;;;;;;5033115;28;20466;-67
2022/08/30 02:14:57;;;;;;;4.53;2.77;;;16.80;98.00;;;;;;5032923;28;20804;-67
2022/08/30 02:17:24;;;;;;;4.57;2.80;;;16.80;98.00;;;;;;5033035;28;20517;-67
2022/08/30 02:19:52;;;;;;;4.97;2.93;;;16.90;98.00;;;;;;5015393;28;20537;-68
2022/08/30 02:22:19;;;;;;;4.10;2.77;;;16.90;98.00;;;;;;5032730;28;20466;-68
2022/08/30 02:24:47;;;;;;;6.40;2.70;;;16.80;98.00;;;;;;4999417;28;20454;-67
2022/08/30 02:27:14;;;;;;;8.10;3.30;;;16.70;98.00;;;;;;5032897;28;20457;-68
2022/08/30 02:29:42;;;;;;;5.17;2.60;;;16.60;98.00;;;;;;5015090;28;20469;-68
2022/08/30 02:32:10;;;;;;;4.90;3.10;;;16.60;98.00;;;;;;5032463;28;20464;-68
2022/08/30 02:34:38;;;;;;;5.03;3.00;;;16.70;98.00;;;;;;5032393;28;20481;-68
2022/08/30 02:37:05;;;;;;;2.60;2.20;;;16.60;98.00;;;;;;5032234;28;20463;-68
2022/08/30 02:39:32;;;;;;;4.67;2.73;;;16.60;98.00;;;;;;5032440;28;20459;-68
2022/08/30 02:42:00;;;;;;;5.93;3.17;;;16.60;98.00;;;;;;5031947;28;20489;-68
2022/08/30 02:44:27;;;;;;;3.83;2.70;;;16.60;98.00;;;;;;5032520;28;20462;-68
2022/08/30 02:46:55;;;;;;;3.63;2.30;;;16.70;98.00;;;;;;5032048;28;20454;-67
2022/08/30 02:49:23;;;;;;;4.60;2.87;;;16.80;98.00;;;;;;5032337;28;20478;-68
2022/08/30 02:51:51;;;;;;;6.27;2.73;;;16.70;98.00;;;;;;5032007;28;20462;-67
2022/08/30 02:54:19;;;;;;;4.70;2.93;;;16.70;98.00;;;;;;5032349;28;20462;-68
2022/08/30 02:56:46;;;;;;;7.63;2.93;;;16.60;98.00;;;;;;5032199;28;20455;-67
2022/08/30 02:59:14;;;;;;;3.03;2.43;;;16.70;98.00;;;;;;5014329;28;21275;-67
2022/08/30 03:01:41;;;;;;;4.53;2.90;;;16.90;98.00;;;;;;5031885;28;20485;-68
2022/08/30 03:04:10;;;;;;;5.00;2.90;;;16.80;98.00;;;;;;5032004;28;20458;-67
2022/08/30 03:06:37;;;;;;;5.23;3.00;;;16.70;98.00;;;;;;5032037;28;20457;-67
2022/08/30 03:09:04;;;;;;;5.50;3.40;;;16.60;98.00;;;;;;5014573;28;20458;-68
2022/08/30 03:11:32;;;;;;;5.40;2.80;;;16.60;98.00;;;;;;5032003;28;20477;-67
2022/08/30 03:13:59;;;;;;;5.10;3.13;;;16.50;98.00;;;;;;5032057;28;20472;-67
2022/08/30 03:16:26;;;;;;;5.83;2.93;;;16.50;98.00;;;;;;5031573;28;20465;-67
2022/08/30 03:18:54;;;;;;;3.43;2.53;;;16.50;98.00;;;;;;5032119;28;20957;-68
2022/08/30 03:21:22;;;;;;;3.77;2.50;;;16.60;98.00;;;;;;5032096;28;21070;-68
2022/08/30 03:23:49;;;;;;;4.07;2.90;;;16.70;98.00;;;;;;5032212;28;20459;-67
2022/08/30 03:26:17;;;;;;;5.17;3.10;;;16.70;98.00;;;;;;5032051;28;20490;-67
2022/08/30 03:28:44;;;;;;;8.00;2.97;;;16.60;98.00;;;;;;5031739;28;20462;-68
2022/08/30 03:31:12;;;;;;;5.70;3.40;;;16.60;98.00;;;;;;5031745;28;20457;-67
2022/08/30 03:33:40;;;;;;;3.93;2.73;;;16.60;98.00;;;;;;5014274;28;20488;-68
2022/08/30 03:36:09;;;;;;;5.03;2.53;;;16.50;98.00;;;;;;5031534;28;20494;-68
2022/08/30 03:38:38;;;;;;;4.10;2.63;;;16.30;98.00;;;;;;5031793;28;20458;-68
2022/08/30 03:41:05;;;;;;;3.77;2.40;;;16.20;98.00;;;;;;5031287;28;20486;-68
2022/08/30 03:43:33;;;;;;;8.90;3.07;;;16.20;98.00;;;;;;5031648;28;20494;-68
2022/08/30 03:46:00;;;;;;;6.30;2.97;;;16.20;98.00;;;;;;5031236;28;20462;-68
2022/08/30 03:48:28;;;;;;;8.13;3.33;;;16.40;98.00;;;;;;5014091;28;20466;-68
2022/08/30 03:50:55;;;;;;;4.30;2.50;;;16.50;98.00;;;;;;5031545;28;20533;-68
2022/08/30 03:53:23;;;;;;;3.60;2.40;;;16.60;98.00;;;;;;5031536;28;20470;-68
2022/08/30 03:55:51;;;;;;;4.50;2.90;;;16.60;98.00;;;;;;5031537;28;20451;-67
2022/08/30 03:58:22;;;;;;;3.13;2.10;;;16.50;98.00;;;;;;5031419;28;20457;-67
2022/08/30 04:00:49;;;;;;;3.80;2.80;;;16.40;98.00;;;;;;5014064;28;20486;-67
2022/08/30 04:03:17;;;;;;;4.70;2.70;;;16.40;98.00;;;;;;5031708;28;20526;-68
2022/08/30 04:05:44;;;;;;;4.33;2.30;;;16.30;98.00;;;;;;5031570;28;21155;-68
2022/08/30 04:08:11;;;;;;;3.50;2.70;;;16.30;98.00;;;;;;5031413;28;20474;-68
2022/08/30 04:10:38;;;;;;;5.03;3.00;;;16.20;98.00;;;;;;5031479;28;20492;-68
2022/08/30 04:13:07;;;;;;;4.60;2.90;;;16.20;98.00;;;;;;5031354;28;20458;-68
2022/08/30 04:15:35;;;;;;;3.83;2.60;;;16.20;98.00;;;;;;5031562;28;20466;-67
2022/08/30 04:18:02;;;;;;;4.30;3.17;;;16.20;98.00;;;;;;5031337;28;20490;-68
2022/08/30 04:20:30;;;;;;;4.57;2.80;;;16.10;98.00;;;;;;5031619;28;20458;-67
2022/08/30 04:22:58;;;;;;;4.90;2.40;;;16.10;98.00;;;;;;5031361;28;20466;-67
2022/08/30 04:25:25;;;;;;;2.90;2.10;;;16.10;98.00;;;;;;5014258;28;20466;-68
2022/08/30 04:27:52;;;;;;;5.00;3.10;;;16.10;98.00;;;;;;5014911;28;20492;-68
2022/08/30 04:30:21;;;;;;;3.33;2.50;;;16.10;98.00;;;;;;5035056;28;20462;-68
2022/08/30 04:32:48;;;;;;;5.70;3.17;;;16.10;98.00;;;;;;5034562;28;20458;-68
2022/08/30 04:35:15;;;;;;;4.47;3.00;;;16.00;98.00;;;;;;5034718;28;20466;-68
2022/08/30 04:37:42;;;;;;;3.93;2.47;;;16.00;98.00;;;;;;5034698;28;21112;-68
2022/08/30 04:40:11;;;;;;;4.50;2.97;;;15.90;98.00;;;;;;5034551;28;20451;-68
2022/08/30 04:42:38;;;;;;;3.07;2.30;;;15.80;98.00;;;;;;5034663;28;20486;-68
2022/08/30 04:45:08;;;;;;;4.23;2.60;;;15.80;98.00;;;;;;5034332;28;20461;-68
2022/08/30 04:47:37;;;;;;;3.83;2.70;;;15.80;98.00;;;;;;5033828;28;20463;-67
2022/08/30 04:50:06;;;;;;;3.30;2.17;;;15.80;98.00;;;;;;5034485;28;20541;-68
2022/08/30 04:52:34;;;;;;;5.57;2.60;;;15.70;98.00;;;;;;5034509;28;20477;-68
2022/08/30 04:55:01;;;;;;;2.87;2.13;;;15.60;98.00;;;;;;5034501;28;20454;-67
2022/08/30 04:57:29;;;;;;;2.73;2.37;;;15.70;98.00;;;;;;5016939;28;20502;-68
2022/08/30 04:59:56;;;;;;;4.03;2.73;;;15.70;98.00;;;;;;5033900;28;20459;-67
2022/08/30 05:02:24;;;;;;;2.53;2.03;;;15.70;98.00;;;;;;5034321;28;20486;-68
2022/08/30 05:07:37;;;;;;;2.83;2.30;;;15.90;98.00;;;;;;5034439;28;20940;-68
2022/08/30 05:10:05;;;;;;;4.37;2.30;;;15.90;98.00;;;;;;5034282;28;20465;-68
2022/08/30 05:12:32;;;;;;;3.03;2.27;;;16.00;98.00;;;;;;5034208;28;20455;-67
2022/08/30 05:14:59;;;;;;;4.80;2.40;;;15.90;98.00;;;;;;5034092;28;20462;-68
2022/08/30 05:17:27;;;;;;;3.63;2.43;;;15.90;98.00;;;;;;5034129;28;20462;-67
2022/08/30 05:19:55;;;;;;;7.00;3.80;;;15.90;98.00;;;;;;5034212;28;20460;-67
2022/08/30 05:22:23;;;;;;;3.93;2.87;;;15.90;98.00;;;;;;5033851;28;20977;-67
2022/08/30 05:24:50;;;;;;;3.97;2.37;;;15.90;98.00;;;;;;5033861;28;20466;-67
2022/08/30 05:27:17;;;;;;;4.83;2.90;;;16.00;98.00;;;;;;5033714;28;20458;-68
2022/08/30 05:29:46;;;;;;;3.17;2.30;;;16.10;98.00;;;;;;5016173;28;20458;-68
2022/08/30 05:32:14;;;;;;;5.07;3.00;;;16.30;98.00;;;;;;5033686;28;20459;-68
2022/08/30 05:34:41;;;;;;;4.90;3.20;;;16.30;98.00;;;;;;5033648;28;20467;-67
2022/08/30 05:37:10;;;;;;;3.30;2.50;;;16.30;98.00;;;;;;5033214;28;20520;-68
2022/08/30 05:39:37;;;;;;;4.43;2.57;;;16.20;98.00;;;;;;5033247;28;20926;-67
2022/08/30 05:42:05;;;;;;;3.27;2.13;;;16.20;98.00;;;;;;5033582;28;20482;-68
2022/08/30 05:44:33;;;;;;;4.83;3.10;;;16.40;98.00;;;;;;5033621;28;20454;-68
2022/08/30 05:47:00;;;;;;;5.93;3.23;;;16.50;98.00;;;;;;5033404;28;20455;-68
2022/08/30 05:49:27;;;;;;;8.33;3.03;;;16.50;98.00;;;;;;5033309;28;20470;-68
2022/08/30 05:51:55;;;;;;;2.80;2.27;;;16.60;98.00;;;;;;5033148;28;20455;-68
2022/08/30 05:54:31;;;;;;;5.30;2.80;;;16.60;98.00;;;;;;5033202;28;20458;-67
2022/08/30 05:57:03;;;;;;;5.53;3.27;;;16.70;98.00;;;;;;5033044;28;20468;-68
2022/08/30 05:59:31;;;;;;;5.17;3.30;;;16.60;98.00;;;;;;5015044;28;20462;-67
2022/08/30 06:01:58;;;;;;;6.80;3.70;;;16.70;98.00;;;;;;5032583;28;20483;-67
2022/08/30 06:04:26;;;;;;;5.30;2.50;;;16.70;98.00;;;;;;5033207;28;20458;-67
2022/08/30 06:06:53;;;;;;;5.70;2.83;;;16.70;98.00;;;;;;5015662;28;20464;-68
2022/08/30 06:09:24;;;;;;;19.33;2.87;;;16.70;98.00;;;;;;5032949;28;20462;-68
2022/08/30 06:11:51;;;;;;;7.93;3.30;;;16.80;98.00;;;;;;5032514;28;20458;-67
2022/08/30 06:14:18;;;;;;;5.87;2.90;;;16.90;98.00;;;;;;5032151;28;20461;-67
2022/08/30 06:16:46;;;;;;;5.30;2.87;;;17.00;98.00;;;;;;5032278;28;20560;-68
2022/08/30 06:19:14;;;;;;;7.20;3.20;;;17.20;98.00;;;;;;5032493;28;20454;-68
2022/08/30 06:21:42;;;;;;;2.83;2.23;;;17.30;98.00;;;;;;5032186;28;20483;-68
2022/08/30 06:24:11;;;;;;;6.03;2.90;;;17.40;98.00;;;;;;5032048;28;20458;-64
2022/08/30 06:26:42;;;;;;;5.23;3.27;;;17.50;98.00;;;;;;5031863;28;20814;-64
2022/08/30 06:29:11;;;;;;;5.10;3.10;;;17.90;98.00;;;;;;5031592;28;20459;-64
2022/08/30 06:31:40;;;;;;;7.77;2.90;;;18.00;98.00;;;;;;5031920;28;20455;-64
2022/08/30 06:34:07;;;;;;;4.60;2.80;;;18.10;98.00;;;;;;5031544;28;20458;-64
2022/08/30 06:36:38;;;;;;;5.50;3.40;;;18.30;98.00;;;;;;5031702;28;20451;-64
2022/08/30 06:39:05;;;;;;;5.47;3.23;;;18.30;98.00;;;;;;5031635;28;20450;-64
2022/08/30 06:41:36;;;;;;;7.03;3.23;;;18.30;98.00;;;;;;5031581;28;20489;-64
2022/08/30 06:44:06;;;;;;;6.27;3.93;;;18.30;98.00;;;;;;5031756;28;20837;-64
2022/08/30 06:46:36;;;;;;;5.87;3.50;;;18.30;98.00;;;;;;5031640;28;20489;-64
2022/08/30 06:49:05;;;;;;;5.77;3.43;;;18.30;98.00;;;;;;5031736;28;20458;-64
2022/08/30 06:51:35;;;;;;;4.70;3.10;;;18.40;98.00;;;;;;5030901;28;20477;-64
2022/08/30 06:54:07;;;;;;;6.23;3.47;;;18.40;98.00;;;;;;5031626;28;20661;-64
2022/08/30 06:56:37;;;;;;;6.60;3.33;;;18.50;98.00;;;;;;5031826;28;20458;-64
2022/08/30 06:59:14;;;;;;;5.03;3.03;;;18.60;98.00;;;;;;5032416;28;20497;-64
2022/08/30 07:01:41;;;;;;;5.73;3.00;;;18.60;98.00;;;;;;5031699;28;20482;-64
2022/08/30 07:04:08;;;;;;;5.83;3.13;;;18.70;98.00;;;;;;5031225;28;20470;-64
2022/08/30 07:06:36;;;;;;;4.90;2.93;;;18.80;98.00;;;;;;5031327;28;20949;-64
2022/08/30 07:09:03;;;;;;;10.00;3.40;;;18.80;98.00;;;;;;5013602;28;20459;-64
2022/08/30 07:11:33;;;;;;;5.77;3.43;;;18.90;98.00;;;;;;5031188;28;20458;-64
2022/08/30 07:14:01;;;;;;;5.30;3.37;;;19.10;98.00;;;;;;5013784;28;20461;-64
2022/08/30 07:16:31;;;;;;;8.20;3.37;;;19.30;98.00;;;;;;5031353;28;20961;-64
2022/08/30 07:18:59;;;;;;;7.07;3.20;;;19.40;98.00;;;;;;5031342;28;20454;-64
2022/08/30 07:21:29;;;;;;;3.60;2.67;;;19.50;98.00;;;;;;5031273;28;20443;-64
2022/08/30 07:23:58;;;;;;;4.50;2.83;;;19.60;98.00;;;;;;5026376;28;20861;-64
2022/08/30 07:26:28;;;;;;;6.40;3.20;;;19.80;98.00;;;;;;5024719;28;20463;-65
2022/08/30 07:28:55;;;;;;;6.30;3.30;;;19.90;98.00;;;;;;5022605;28;20459;-65
2022/08/30 07:31:31;;;;;;;5.77;3.57;;;20.00;98.00;;;;;;5036124;28;20484;-64
2022/08/30 07:34:01;;;;;;;6.63;3.23;;;20.10;98.00;;;;;;5036535;28;20991;-64
2022/08/30 07:36:29;;;;;;;5.93;3.40;;;20.30;98.00;;;;;;5037486;28;20477;-64
2022/08/30 07:38:56;;;;;;;7.10;3.10;;;20.50;98.00;;;;;;5038064;28;20533;-65
2022/08/30 07:41:27;;;;;;;4.13;2.83;;;20.60;98.00;;;;;;5046825;28;20959;-65
2022/08/30 07:43:55;;;;;;;6.13;3.30;;;20.70;98.00;;;;;;5030493;28;20454;-68
2022/08/30 07:46:26;;;;;;;5.13;3.03;;;20.80;98.00;;;;;;5037910;28;20948;-66
2022/08/30 07:48:54;;;;;;;4.60;3.10;;;21.00;98.00;;;;;;5040016;28;20447;-66
2022/08/30 07:51:27;;;;;;;3.70;2.60;;;21.20;98.00;;;;;;5039205;28;20605;-66
2022/08/30 07:53:56;;;;;;;6.30;2.90;;;21.30;98.00;;;;;;5037314;28;20965;-67
2022/08/30 07:56:24;;;;;;;4.83;3.03;;;21.60;98.00;;;;;;5030011;28;20826;-66
2022/08/30 07:58:52;;;;;;;5.70;3.00;;;21.80;98.00;;;;;;5039067;28;20501;-66
2022/08/30 08:01:23;;;;;;;5.90;3.50;;;21.80;98.00;;;;;;5039135;28;20454;-66
2022/08/30 08:03:51;;;;;;;6.50;3.50;;;21.70;98.00;;;;;;5041551;28;20878;-66
2022/08/30 08:06:22;;;;;;;7.53;4.10;;;21.70;98.00;;;;;;5034165;28;20508;-66
2022/08/30 08:08:52;;;;;;;6.70;3.33;;;21.80;98.00;;;;;;5041213;28;20457;-66
2022/08/30 08:11:24;;;;;;;5.77;3.20;;;21.90;98.00;;;;;;5042785;28;20867;-66
2022/08/30 08:13:52;;;;;;;4.90;2.73;;;22.00;98.00;;;;;;5041816;28;20873;-67
2022/08/30 08:16:22;;;;;;;6.00;3.10;;;22.20;98.00;;;;;;5023863;28;20453;-67
2022/08/30 08:18:49;;;;;;;5.13;2.90;;;22.40;98.00;;;;;;5033713;28;20474;-66
2022/08/30 08:21:16;;;;;;;6.33;3.47;;;22.60;98.00;;;;;;5041892;28;20741;-67
2022/08/30 08:23:43;;;;;;;5.57;3.53;;;22.70;98.00;;;;;;5042059;28;20497;-68
2022/08/30 08:26:12;;;;;;;4.83;2.90;;;22.90;98.00;;;;;;5036395;28;20459;-68
2022/08/30 08:28:39;;;;;;;5.37;3.27;;;23.00;98.00;;;;;;5041575;28;20467;-68
2022/08/30 08:31:15;;;;;;;4.90;3.30;;;23.20;98.00;;;;;;5041621;28;20462;-63
2022/08/30 08:33:42;;;;;;;4.60;3.20;;;23.40;98.00;;;;;;5040862;28;20472;-63
2022/08/30 08:36:09;;;;;;;5.30;3.13;;;23.50;98.00;;;;;;5041071;28;20461;-63
2022/08/30 08:38:37;;;;;;;6.67;3.50;;;23.70;98.00;;;;;;5012149;28;21135;-63
2022/08/30 08:41:11;;;;;;;5.07;3.33;;;23.90;98.00;;;;;;5050366;28;20820;-63
2022/08/30 08:43:40;;;;;;;7.43;4.27;;;24.10;98.00;;;;;;5008444;28;20667;-64
2022/08/30 08:46:16;;;;;;;4.60;3.30;;;24.20;98.00;;;;;;5040614;28;20454;-65
2022/08/30 08:48:48;;;;;;;5.43;3.17;;;24.40;98.00;;;;;;5033850;28;20465;-63
2022/08/30 08:54:08;;;;;;;4.53;3.03;;;24.60;98.00;;;;;;5025744;28;21074;-61
2022/08/30 08:56:36;;;;;;;5.30;3.23;;;24.80;98.00;;;;;;5044105;28;20553;-62
2022/08/30 08:59:08;;;;;;;7.53;4.00;;;25.00;98.00;;;;;;5032440;28;20819;-63
2022/08/30 09:01:37;;;;;;;6.53;3.37;;;25.20;98.00;;;;;;5033100;28;20467;-62
2022/08/30 09:04:10;;;;;;;6.00;3.43;;;25.30;98.00;;;;;;5031590;28;20501;-64
2022/08/30 09:06:48;;;;;;;6.40;3.70;;;25.50;98.00;;;;;;5037860;28;20462;-63
2022/08/30 09:09:18;;;;;;;8.00;4.17;;;25.60;98.00;;;;;;5041824;28;20454;-64
2022/08/30 09:11:48;;;;;;;4.47;3.10;;;25.80;98.00;;;;;;4997751;28;21021;-64
2022/08/30 09:14:20;;;;;;;4.47;3.03;;;25.90;98.00;;;;;;5039169;28;20481;-62
2022/08/30 09:16:56;;;;;;;4.77;3.30;;;26.00;98.00;;;;;;5040663;28;20459;-61
2022/08/30 09:19:44;;;;;;;6.40;3.50;;;26.10;98.00;;;;;;5031948;28;20485;-62
2022/08/30 09:22:25;;;;;;;5.83;3.77;;;26.30;98.00;;;;;;5037983;28;20494;-64
2022/08/30 09:24:55;;;;;;;4.63;3.30;;;26.40;98.00;;;;;;5035836;28;20756;-64
2022/08/30 09:27:26;;;;;;;5.60;3.47;;;26.50;98.00;;;;;;5040235;28;20553;-63
2022/08/30 09:29:58;;;;;;;6.10;3.80;;;26.70;98.00;;;;;;5041046;28;20469;-63
2022/08/30 09:32:29;;;;;;;8.10;4.43;;;26.80;98.00;;;;;;5041478;28;20927;-63
2022/08/30 09:34:56;;;;;;;7.50;4.10;;;26.90;97.40;;;;;;5046057;28;20470;-63
2022/08/30 09:37:46;;;;;;;8.13;3.90;;;26.90;97.80;;;;;;5035540;28;20467;-62
2022/08/30 09:40:21;;;;;;;6.07;3.40;;;27.10;97.90;;;;;;5028687;28;20446;-63
2022/08/30 09:43:01;;;;;;;5.67;3.40;;;27.30;97.90;;;;;;5040743;28;20493;-62
2022/08/30 09:45:34;;;;;;;5.90;3.57;;;27.50;96.70;;;;;;5023925;28;20474;-62
2022/08/30 09:48:30;;;;;;;7.67;3.97;;;27.70;96.30;;;;;;5033760;28;20505;-63
2022/08/30 09:51:12;;;;;;;5.30;3.30;;;27.80;94.80;;;;;;5046528;28;20960;-63
2022/08/30 09:53:48;;;;;;;5.63;3.73;;;27.90;94.40;;;;;;5017201;28;20455;-63
2022/08/30 09:56:24;;;;;;;4.63;3.23;;;28.00;94.10;;;;;;5009237;28;20451;-62
2022/08/30 09:59:03;;;;;;;6.73;3.73;;;28.20;93.90;;;;;;5031173;28;20933;-64
2022/08/30 10:01:36;;;;;;;6.40;3.43;;;28.30;92.50;;;;;;5042009;28;20979;-62
2022/08/30 10:04:15;;;;;;;6.43;3.50;;;28.40;92.00;;;;;;5048280;28;20492;-62
2022/08/30 10:06:49;;;;;;;6.60;3.57;;;28.60;91.60;;;;;;5034010;28;20465;-62
2022/08/30 10:09:38;;;;;;;7.73;3.60;;;28.70;90.10;;;;;;5036936;28;20462;-62
2022/08/30 10:12:16;;;;;;;4.60;3.07;;;28.80;90.60;;;;;;5024413;28;20455;-62
2022/08/30 10:14:59;;;;;;;7.27;3.80;;;28.90;90.10;;;;;;5047565;28;20456;-62
2022/08/30 10:17:42;;;;;;;4.53;3.37;;;28.90;90.00;;;;;;5048599;28;20545;-63
2022/08/30 10:20:29;;;;;;;4.47;3.10;;;29.00;89.50;;;;;;5047423;28;20468;-62
2022/08/30 10:23:05;;;;;;;5.40;3.67;;;29.10;89.90;;;;;;5031192;28;20572;-62
2022/08/30 10:25:36;;;;;;;6.30;3.53;;;29.20;88.10;;;;;;5044076;28;20469;-62
2022/08/30 10:28:11;;;;;;;6.47;3.77;;;29.30;86.50;;;;;;5037561;28;20458;-61
2022/08/30 10:30:44;;;;;;;7.60;3.90;;;29.40;86.20;;;;;;5041017;28;20533;-62
2022/08/30 10:33:17;;;;;;;5.40;3.33;;;29.50;85.40;;;;;;5039647;28;20532;-62
2022/08/30 10:35:48;;;;;;;5.67;3.43;;;29.70;86.00;;;;;;5030488;28;20956;-61
2022/08/30 10:38:21;;;;;;;6.07;3.70;;;29.90;86.40;;;;;;5047434;28;20462;-62
2022/08/30 10:43:49;;;;;;;5.23;3.40;;;30.30;83.70;;;;;;5025473;28;20533;-62
2022/08/30 10:46:25;;;;;;;5.13;3.27;;;30.50;83.50;;;;;;5048755;28;20472;-62
2022/08/30 10:48:56;;;;;;;5.10;3.53;;;30.50;82.30;;;;;;5036522;28;20463;-62
2022/08/30 10:51:30;;;;;;;5.70;3.47;;;30.60;81.90;;;;;;5033736;28;20462;-62
2022/08/30 10:54:04;;;;;;;4.80;3.30;;;30.70;82.10;;;;;;5042103;28;20494;-61
2022/08/30 10:56:31;;;;;;;5.40;3.43;;;30.80;82.50;;;;;;5045377;28;20458;-61
2022/08/30 10:58:58;;;;;;;5.03;3.30;;;31.00;81.90;;;;;;5046639;28;20465;-62
2022/08/30 11:01:39;;;;;;;5.33;3.40;;;31.10;80.00;;;;;;5042569;28;20826;-62
2022/08/30 11:04:34;;;;;;;5.53;3.00;;;31.10;81.00;;;;;;5030716;28;20498;-62
2022/08/30 11:07:16;;;;;;;5.47;3.50;;;31.40;79.80;;;;;;5030313;28;20459;-63
2022/08/30 11:10:04;;;;;;;4.87;2.90;;;31.50;78.60;;;;;;5033627;28;20461;-62
2022/08/30 11:12:36;;;;;;;4.90;3.00;;;31.60;78.30;;;;;;5041550;28;20961;-62
2022/08/30 11:15:15;;;;;;;6.27;3.17;;;31.60;78.30;;;;;;5029899;28;20463;-61
2022/08/30 11:17:52;;;;;;;4.73;3.10;;;31.60;78.00;;;;;;5038153;28;20457;-62
2022/08/30 11:20:32;;;;;;;4.43;2.97;;;31.60;79.20;;;;;;5029249;28;20458;-65
2022/08/30 11:23:28;;;;;;;6.17;3.23;;;31.90;77.60;;;;;;5029007;28;20489;-64
2022/08/30 11:25:58;;;;;;;5.57;3.10;;;32.00;78.50;;;;;;5000338;28;20909;-65
2022/08/30 11:29:04;;;;;;;3.77;3.00;;;32.00;76.90;;;;;;5011285;28;20455;-64
2022/08/30 11:31:42;;;;;;;4.97;3.27;;;32.10;76.60;;;;;;4931486;29;20469;-64
2022/08/30 11:34:13;;;;;;;4.60;2.93;;;32.00;76.10;;;;;;4930970;29;20884;-64
2022/08/30 11:37:09;;;;;;;5.20;3.10;;;31.60;76.80;;;;;;4979171;28;20528;-64
2022/08/30 11:39:58;;;;;;;7.93;4.43;;;31.10;77.80;;;;;;5015553;28;20944;-64
2022/08/30 11:42:31;;;;;;;5.10;3.27;;;30.90;81.20;;;;;;4996827;28;20460;-64
2022/08/30 11:45:34;;;;;;;5.47;3.43;;;31.20;79.10;;;;;;5015511;28;20490;-64
2022/08/30 11:48:04;;;;;;;5.47;3.50;;;31.70;77.10;;;;;;5010695;28;20817;-64
2022/08/30 11:50:36;;;;;;;5.33;3.63;;;32.00;78.30;;;;;;4998337;28;20513;-64
2022/08/30 11:53:15;;;;;;;5.20;3.70;;;31.80;77.90;;;;;;5015134;28;20562;-64
2022/08/30 11:55:53;;;;;;;5.30;3.30;;;31.60;77.90;;;;;;5015151;28;20824;-64
2022/08/30 11:58:32;;;;;;;4.93;3.30;;;31.20;77.80;;;;;;5015194;28;20823;-63
2022/08/30 12:01:21;;;;;;;7.70;3.43;;;31.30;78.30;;;;;;5015013;28;20466;-62
2022/08/30 12:03:56;;;;;;;5.17;3.47;;;31.30;78.10;;;;;;4998341;28;20533;-64
2022/08/30 12:07:03;;;;;;;7.80;3.30;;;31.20;76.40;;;;;;4997557;28;20462;-63
2022/08/30 12:10:06;;;;;;;4.70;3.10;;;31.10;76.70;;;;;;5014959;28;20495;-65
2022/08/30 12:12:55;;;;;;;5.23;3.30;;;31.00;80.70;;;;;;5014867;28;20455;-62
2022/08/30 12:15:55;;;;;;;5.23;3.20;;;30.80;79.50;;;;;;5015163;28;20455;-65
2022/08/30 12:18:26;;;;;;;5.50;3.20;;;31.00;78.80;;;;;;5014800;28;20466;-65
2022/08/30 12:20:55;;;;;;;5.10;3.30;;;31.00;79.10;;;;;;5014751;28;21027;-64
2022/08/30 12:23:37;;;;;;;5.00;3.43;;;31.00;78.90;;;;;;5014570;28;20490;-64
2022/08/30 12:26:17;;;;;;;5.03;3.10;;;30.90;79.40;;;;;;5014599;28;20531;-65
2022/08/30 12:28:47;;;;;;;5.17;3.10;;;30.90;80.80;;;;;;5014033;28;20981;-65
2022/08/30 12:31:17;;;;;;;4.00;3.40;;;30.90;78.70;;;;;;5014518;28;20984;-64
2022/08/30 12:33:53;;;;;;;4.37;3.10;;;31.00;79.00;;;;;;5014119;28;20471;-63
2022/08/30 12:36:33;;;;;;;5.13;2.70;;;30.80;79.10;;;;;;5014406;28;20462;-66
2022/08/30 12:39:10;;;;;;;4.70;3.10;;;30.70;80.30;;;;;;4996630;28;20461;-65
2022/08/30 12:41:39;;;;;;;5.03;3.10;;;30.70;79.40;;;;;;5014349;28;20459;-66
2022/08/30 12:44:09;;;;;;;4.60;3.10;;;30.90;80.40;;;;;;5014151;28;20834;-65
2022/08/30 12:46:37;;;;;;;4.73;3.30;;;31.00;79.10;;;;;;5014235;28;20459;-65
2022/08/30 12:49:05;;;;;;;6.37;3.50;;;31.20;80.00;;;;;;5012919;28;20463;-66
2022/08/30 12:51:39;;;;;;;5.10;3.23;;;31.50;78.50;;;;;;4980554;28;20486;-65
2022/08/30 12:54:18;;;;;;;4.53;3.17;;;31.60;77.60;;;;;;5013855;28;20962;-65
2022/08/30 12:56:57;;;;;;;5.10;3.20;;;31.90;75.80;;;;;;5014006;28;20459;-66
2022/08/30 12:59:56;;;;;;;6.13;3.10;;;32.00;76.20;;;;;;5014087;28;20459;-66
2022/08/30 13:02:26;;;;;;;4.90;2.90;;;32.20;74.20;;;;;;5014026;28;20555;-66
2022/08/30 13:04:55;;;;;;;4.77;3.03;;;32.40;74.70;;;;;;5013781;28;20491;-65
2022/08/30 13:07:28;;;;;;;5.13;3.23;;;32.60;75.40;;;;;;5013927;28;20463;-66
2022/08/30 13:10:12;;;;;;;3.63;2.73;;;32.50;75.60;;;;;;5014138;28;20459;-67
2022/08/30 13:12:57;;;;;;;3.60;3.00;;;32.60;75.40;;;;;;4997411;28;20465;-66
2022/08/30 13:15:34;;;;;;;5.17;2.90;;;32.60;72.80;;;;;;5013972;28;20746;-66
2022/08/30 13:18:17;;;;;;;6.10;3.33;;;32.30;75.60;;;;;;5013542;28;20976;-67